Time;durP1;ratioP1;P1;durP2;ratioP2;P2;SDS_P1;SDS_P2;PMS_P1;PMS_P2;Temp;Humidity;BMP_temperature;BMP_pressure;BME280_temperature;BME280_humidity;BME280_pressure;Samples;Min_cycle;Max_cycle;Signal;HPM_P1;HPM_P2
2023/02/04 00:04:22;;;;;;;5.60;5.30;;;9.80;99.90;;;;;;10589697;27;20656;-78
2023/02/04 00:09:24;;;;;;;6.03;5.63;;;9.70;99.90;;;;;;10578670;27;20683;-80
2023/02/04 00:14:27;;;;;;;6.43;5.83;;;9.70;99.90;;;;;;10571742;27;20655;-79
2023/02/04 00:19:29;;;;;;;5.60;5.30;;;9.70;99.90;;;;;;10572712;27;20282;-79
2023/02/04 00:24:32;;;;;;;5.70;5.40;;;9.60;99.90;;;;;;10572163;27;20223;-78
2023/02/04 00:29:35;;;;;;;9.80;9.00;;;9.60;99.90;;;;;;10570610;28;20212;-78
2023/02/04 00:34:37;;;;;;;4.53;4.33;;;9.60;99.90;;;;;;10575681;27;20303;-80
2023/02/04 00:39:39;;;;;;;4.90;4.67;;;9.60;99.90;;;;;;10554493;27;20230;-80
2023/02/04 00:44:42;;;;;;;4.73;4.33;;;9.60;99.90;;;;;;10561517;27;20256;-81
2023/02/04 00:49:45;;;;;;;4.80;4.40;;;9.60;99.90;;;;;;10551232;27;20215;-79
2023/02/04 00:54:47;;;;;;;4.43;4.22;;;9.70;99.90;;;;;;10547553;27;20230;-81
2023/02/04 00:59:50;;;;;;;4.90;4.50;;;9.80;99.90;;;;;;10556418;27;20192;-81
2023/02/04 01:04:52;;;;;;;5.30;5.00;;;9.90;99.90;;;;;;10570443;27;20592;-82
2023/02/04 01:09:54;;;;;;;6.80;6.30;;;9.80;99.90;;;;;;10587284;27;20223;-80
2023/02/04 01:14:58;;;;;;;7.00;6.60;;;9.70;99.90;;;;;;10564208;28;20447;-81
2023/02/04 01:20:00;;;;;;;8.47;7.73;;;9.60;99.90;;;;;;10571367;27;20199;-79
2023/02/04 01:25:02;;;;;;;8.70;8.20;;;9.50;99.90;;;;;;10574089;28;20215;-80
2023/02/04 01:30:18;;;;;;;9.13;8.43;;;9.40;99.90;;;;;;10583213;28;20235;-80
2023/02/04 01:35:20;;;;;;;11.03;10.43;;;9.40;99.90;;;;;;10563612;27;20760;-79
2023/02/04 01:40:23;;;;;;;11.27;10.47;;;9.30;99.90;;;;;;10576094;27;20671;-79
2023/02/04 01:45:27;;;;;;;10.50;9.90;;;9.20;99.90;;;;;;10564364;27;20745;-78
2023/02/04 01:50:29;;;;;;;10.40;9.80;;;9.40;99.90;;;;;;10548627;27;20215;-77
2023/02/04 01:55:35;;;;;;;9.90;9.00;;;9.30;99.90;;;;;;10572352;27;20269;-78
2023/02/04 02:00:38;;;;;;;8.80;8.10;;;9.20;99.90;;;;;;10568291;27;20204;-79
2023/02/04 02:05:44;;;;;;;8.50;8.10;;;9.10;99.90;;;;;;10566170;28;20598;-79
2023/02/04 02:10:48;;;;;;;10.27;9.47;;;9.00;99.90;;;;;;10589733;28;20241;-79
2023/02/04 02:15:51;;;;;;;7.80;7.40;;;8.90;99.90;;;;;;10601160;28;20243;-79
2023/02/04 02:20:55;;;;;;;8.57;7.88;;;8.90;99.90;;;;;;10585467;28;20194;-78
2023/02/04 02:25:58;;;;;;;8.17;7.57;;;9.00;99.90;;;;;;10585159;28;20683;-79
2023/02/04 02:31:00;;;;;;;7.47;6.73;;;9.00;99.90;;;;;;10591425;28;20673;-79
2023/02/04 02:36:02;;;;;;;7.00;6.40;;;8.90;99.90;;;;;;10572842;28;20702;-79
2023/02/04 02:41:09;;;;;;;8.93;7.13;;;9.00;99.90;;;;;;10597473;28;20201;-77
2023/02/04 02:46:11;;;;;;;7.97;7.20;;;9.00;99.90;;;;;;10608322;28;20226;-79
2023/02/04 02:51:13;;;;;;;6.70;6.10;;;9.10;99.90;;;;;;10601064;28;20561;-78
2023/02/04 02:56:18;;;;;;;9.03;6.13;;;9.00;99.90;;;;;;10585512;28;20223;-78
2023/02/04 03:01:20;;;;;;;11.00;6.43;;;8.90;99.90;;;;;;10589944;28;20225;-79
2023/02/04 03:06:26;;;;;;;7.30;6.60;;;8.90;99.90;;;;;;10602759;28;20210;-78
2023/02/04 03:11:31;;;;;;;11.03;6.33;;;8.80;99.90;;;;;;10606269;27;20219;-78
2023/02/04 03:16:36;;;;;;;5.73;5.33;;;8.80;99.90;;;;;;10581391;27;20215;-78
2023/02/04 03:21:39;;;;;;;8.90;6.53;;;8.80;99.90;;;;;;10604795;27;20240;-77
2023/02/04 03:26:42;;;;;;;5.77;5.30;;;8.80;99.90;;;;;;10599830;27;20225;-78
2023/02/04 03:31:46;;;;;;;10.83;6.43;;;8.80;99.90;;;;;;10584694;27;20251;-80
2023/02/04 03:36:49;;;;;;;9.80;7.03;;;8.90;99.90;;;;;;10581348;27;20215;-78
2023/02/04 03:41:52;;;;;;;7.57;7.07;;;8.90;99.90;;;;;;10589410;27;20195;-80
2023/02/04 03:46:55;;;;;;;6.70;6.10;;;8.90;99.90;;;;;;10617751;27;20226;-78
2023/02/04 03:51:57;;;;;;;7.90;6.10;;;8.90;99.90;;;;;;10614126;27;20219;-79
2023/02/04 03:57:01;;;;;;;6.40;5.70;;;8.90;99.90;;;;;;10606184;27;20772;-79
2023/02/04 04:02:03;;;;;;;6.23;5.70;;;8.90;99.90;;;;;;10577736;27;20578;-80
2023/02/04 04:07:05;;;;;;;6.47;5.87;;;8.90;99.90;;;;;;10606495;27;20826;-79
2023/02/04 04:12:09;;;;;;;9.30;5.77;;;8.90;99.90;;;;;;10596159;27;20283;-79
2023/02/04 04:17:11;;;;;;;6.47;5.83;;;8.90;99.90;;;;;;10607552;27;20235;-77
2023/02/04 04:22:13;;;;;;;11.00;6.27;;;8.90;99.90;;;;;;10603391;27;20206;-78
2023/02/04 04:27:16;;;;;;;6.40;5.90;;;8.90;99.90;;;;;;10607386;27;20210;-78
2023/02/04 04:32:19;;;;;;;7.97;5.90;;;8.90;99.90;;;;;;10624246;27;20274;-77
2023/02/04 04:37:21;;;;;;;6.77;5.07;;;8.90;99.90;;;;;;10592364;27;20694;-77
2023/02/04 04:42:24;;;;;;;6.10;5.50;;;8.90;99.90;;;;;;10585864;27;20202;-78
2023/02/04 04:47:26;;;;;;;6.63;6.03;;;8.90;99.90;;;;;;10587913;27;20233;-78
2023/02/04 04:52:28;;;;;;;5.90;5.43;;;8.90;99.90;;;;;;10607936;27;20306;-78
2023/02/04 04:57:32;;;;;;;9.63;8.53;;;8.90;99.90;;;;;;10585459;27;20234;-79
2023/02/04 05:02:34;;;;;;;8.07;7.47;;;8.90;99.90;;;;;;10590950;27;20200;-78
2023/02/04 05:07:36;;;;;;;6.80;6.17;;;8.90;99.90;;;;;;10609124;27;20219;-80
2023/02/04 05:12:39;;;;;;;7.03;5.70;;;8.90;99.90;;;;;;10600333;27;20228;-78
2023/02/04 05:17:41;;;;;;;5.45;5.10;;;8.90;99.90;;;;;;10597188;27;20269;-78
2023/02/04 05:22:43;;;;;;;6.97;6.07;;;9.10;99.90;;;;;;10602652;27;20191;-79
2023/02/04 05:27:47;;;;;;;7.37;5.93;;;9.10;99.90;;;;;;10619220;27;20280;-79
2023/02/04 05:32:49;;;;;;;7.17;6.10;;;9.20;99.90;;;;;;10568581;27;20495;-79
2023/02/04 05:37:51;;;;;;;6.23;5.47;;;9.30;99.90;;;;;;10598950;27;20452;-80
2023/02/04 05:42:54;;;;;;;7.83;6.70;;;9.20;99.90;;;;;;10621847;27;20207;-80
2023/02/04 05:47:56;;;;;;;7.17;6.47;;;9.10;99.90;;;;;;10620167;27;20254;-80
2023/02/04 05:52:58;;;;;;;6.67;6.17;;;9.00;99.90;;;;;;10596828;27;20305;-80
2023/02/04 05:58:02;;;;;;;8.13;7.20;;;8.90;99.90;;;;;;10596192;27;20221;-80
2023/02/04 06:03:04;;;;;;;9.70;7.73;;;8.90;99.90;;;;;;10615829;27;20203;-79
2023/02/04 06:08:06;;;;;;;9.43;7.53;;;8.90;99.90;;;;;;10604590;27;20676;-79
2023/02/04 06:13:09;;;;;;;9.13;6.47;;;8.80;99.90;;;;;;10574540;28;20313;-78
2023/02/04 06:18:12;;;;;;;8.00;6.70;;;8.80;99.90;;;;;;10592880;28;20260;-80
2023/02/04 06:23:14;;;;;;;13.67;7.00;;;8.70;99.90;;;;;;10624975;28;20183;-80
2023/02/04 06:28:18;;;;;;;10.87;7.47;;;8.70;99.90;;;;;;10623608;28;20219;-79
2023/02/04 06:33:22;;;;;;;8.25;7.47;;;8.70;99.90;;;;;;10569064;28;20241;-80
2023/02/04 06:38:24;;;;;;;8.15;7.38;;;8.80;99.90;;;;;;10592550;28;20206;-80
2023/02/04 06:43:28;;;;;;;12.20;7.70;;;9.00;99.90;;;;;;10612638;27;20192;-80
2023/02/04 06:48:30;;;;;;;10.77;7.23;;;9.00;99.90;;;;;;10633817;27;20317;-80
2023/02/04 06:53:32;;;;;;;11.80;7.97;;;8.90;99.90;;;;;;10598112;27;20223;-81
2023/02/04 06:58:35;;;;;;;13.50;8.03;;;8.80;99.90;;;;;;10580018;27;20236;-80
2023/02/04 07:03:37;;;;;;;12.47;8.00;;;8.80;99.90;;;;;;10638907;27;20236;-80
2023/02/04 07:08:39;;;;;;;12.30;7.47;;;8.80;99.90;;;;;;10629548;27;20215;-80
2023/02/04 07:13:43;;;;;;;11.50;8.10;;;8.80;99.90;;;;;;10596511;27;20211;-80
2023/02/04 07:18:45;;;;;;;10.83;7.40;;;8.70;99.90;;;;;;10596066;27;20214;-80
2023/02/04 07:23:47;;;;;;;13.87;8.00;;;8.70;99.90;;;;;;10633280;27;20702;-80
2023/02/04 07:28:51;;;;;;;16.80;8.93;;;8.70;99.90;;;;;;10638376;27;20761;-78
2023/02/04 07:33:53;;;;;;;12.87;8.03;;;8.70;99.90;;;;;;10568436;27;20242;-79
2023/02/04 07:38:55;;;;;;;15.67;7.93;;;8.70;99.90;;;;;;10592445;27;20221;-80
2023/02/04 07:43:58;;;;;;;12.83;7.80;;;8.70;99.90;;;;;;10630269;27;20196;-79
2023/02/04 07:49:00;;;;;;;12.77;7.65;;;8.80;99.90;;;;;;10642314;27;20561;-80
2023/02/04 07:54:02;;;;;;;11.70;7.50;;;8.90;99.90;;;;;;10604362;27;20230;-80
2023/02/04 07:59:06;;;;;;;11.03;6.87;;;9.00;99.90;;;;;;10603029;28;20298;-80
2023/02/04 08:04:08;;;;;;;9.60;7.33;;;8.90;99.90;;;;;;10612168;27;20200;-79
2023/02/04 08:09:10;;;;;;;11.75;7.47;;;8.90;99.90;;;;;;10643865;27;20542;-81
2023/02/04 08:14:13;;;;;;;12.83;6.27;;;9.00;99.90;;;;;;10591176;27;20568;-80
2023/02/04 08:19:17;;;;;;;14.63;6.27;;;9.10;99.90;;;;;;10601822;27;20655;-79
2023/02/04 08:24:19;;;;;;;12.10;6.13;;;8.90;99.90;;;;;;10633448;27;20204;-79
2023/02/04 08:29:24;;;;;;;15.10;6.20;;;8.90;99.90;;;;;;10623989;27;20207;-78
2023/02/04 08:34:29;;;;;;;15.50;5.77;;;9.00;99.90;;;;;;10574758;27;20253;-80
2023/02/04 08:39:31;;;;;;;12.90;6.03;;;9.00;99.90;;;;;;10641169;27;20198;-80
2023/02/04 08:44:35;;;;;;;15.50;5.73;;;8.90;99.90;;;;;;10613306;27;20207;-80
2023/02/04 08:49:37;;;;;;;11.20;7.20;;;8.90;99.90;;;;;;10597159;27;20215;-79
2023/02/04 08:54:39;;;;;;;11.37;7.13;;;8.90;99.90;;;;;;10629273;27;20580;-80
2023/02/04 08:59:44;;;;;;;9.77;6.73;;;8.80;99.90;;;;;;10641645;27;20210;-79
2023/02/04 09:04:46;;;;;;;13.97;6.60;;;8.70;99.90;;;;;;10621054;27;20211;-80
2023/02/04 09:09:48;;;;;;;9.82;6.53;;;8.70;99.90;;;;;;10589609;28;20233;-80
2023/02/04 09:14:52;;;;;;;14.30;8.33;;;8.80;99.90;;;;;;10627377;27;20659;-80
2023/02/04 09:19:54;;;;;;;10.30;7.22;;;8.90;99.90;;;;;;10638481;27;20187;-80
2023/02/04 09:24:56;;;;;;;17.30;8.27;;;9.00;99.90;;;;;;10616942;27;20233;-80
2023/02/04 09:29:59;;;;;;;11.27;6.97;;;9.10;99.90;;;;;;10602805;27;20214;-80
2023/02/04 09:35:02;;;;;;;14.50;7.23;;;9.20;99.90;;;;;;10626342;27;20465;-77
2023/02/04 09:40:04;;;;;;;11.80;7.20;;;9.20;99.90;;;;;;10619353;27;20194;-79
2023/02/04 09:45:10;;;;;;;9.83;6.57;;;9.20;99.90;;;;;;10602760;27;20231;-80
2023/02/04 09:50:17;;;;;;;9.80;5.70;;;9.30;99.90;;;;;;10598008;27;20220;-80
2023/02/04 09:55:22;;;;;;;14.00;6.83;;;9.60;99.90;;;;;;10588289;28;20221;-80
2023/02/04 10:00:27;;;;;;;10.43;5.43;;;9.80;99.90;;;;;;10585016;28;20192;-79
2023/02/04 10:05:31;;;;;;;9.90;4.80;;;10.00;99.90;;;;;;10599261;28;20203;-80
2023/02/04 10:10:33;;;;;;;8.40;4.30;;;10.10;99.90;;;;;;10600501;28;20198;-80
2023/02/04 10:15:38;;;;;;;12.05;5.38;;;10.20;99.90;;;;;;10608332;28;20211;-79
2023/02/04 10:20:40;;;;;;;13.80;4.70;;;10.30;99.10;;;;;;10595868;28;20275;-79
2023/02/04 10:25:42;;;;;;;14.23;5.33;;;10.30;99.30;;;;;;10616708;27;20212;-78
2023/02/04 10:30:45;;;;;;;10.73;5.37;;;10.20;99.40;;;;;;10614677;27;20183;-80
2023/02/04 10:35:50;;;;;;;12.33;6.30;;;10.30;98.50;;;;;;10610398;28;20441;-79
2023/02/04 10:41:01;;;;;;;10.77;4.20;;;10.30;98.50;;;;;;10594082;27;20276;-80
2023/02/04 10:46:05;;;;;;;12.27;4.77;;;10.20;98.30;;;;;;10592062;27;20734;-79
2023/02/04 10:51:12;;;;;;;15.88;4.57;;;10.10;99.30;;;;;;10639301;27;20497;-80
2023/02/04 10:56:17;;;;;;;12.53;4.50;;;10.20;99.00;;;;;;10649351;27;20225;-79
2023/02/04 11:01:21;;;;;;;12.07;4.30;;;10.10;98.10;;;;;;10605733;27;21609;-78
2023/02/04 11:06:24;;;;;;;9.80;4.90;;;9.90;98.10;;;;;;10599204;27;20219;-79
2023/02/04 11:11:27;;;;;;;14.90;8.03;;;9.70;98.90;;;;;;10568257;28;20216;-78
2023/02/04 11:16:34;;;;;;;13.93;8.90;;;9.70;99.50;;;;;;10589729;27;20251;-78
2023/02/04 11:21:44;;;;;;;10.13;5.47;;;9.80;99.90;;;;;;10593207;27;20284;-78
2023/02/04 11:26:48;;;;;;;12.33;4.53;;;10.10;98.40;;;;;;10584166;27;21092;-78
2023/02/04 11:32:02;;;;;;;14.30;5.50;;;10.30;96.10;;;;;;10566785;27;20247;-78
2023/02/04 11:37:13;;;;;;;11.27;5.07;;;10.20;97.90;;;;;;10583495;27;20223;-78
2023/02/04 11:42:19;;;;;;;13.60;5.33;;;10.30;99.00;;;;;;10570514;27;20232;-78
2023/02/04 11:47:26;;;;;;;8.90;4.60;;;10.30;98.10;;;;;;10581528;27;20280;-78
2023/02/04 11:52:28;;;;;;;11.20;5.10;;;10.40;98.00;;;;;;10571629;27;20211;-78
2023/02/04 11:57:39;;;;;;;8.20;4.47;;;10.40;98.70;;;;;;10576683;27;20234;-78
2023/02/04 12:02:45;;;;;;;11.37;5.20;;;10.40;96.90;;;;;;10613040;27;20302;-78
2023/02/04 12:07:48;;;;;;;13.90;4.83;;;10.50;98.30;;;;;;10589390;27;20220;-78
2023/02/04 12:12:54;;;;;;;10.13;4.72;;;10.50;98.30;;;;;;10593202;27;20306;-78
2023/02/04 12:18:06;;;;;;;14.27;5.10;;;10.70;98.20;;;;;;10593260;27;20219;-78
2023/02/04 12:23:08;;;;;;;9.57;5.20;;;10.60;98.10;;;;;;10633035;27;20220;-78
2023/02/04 12:28:11;;;;;;;13.27;4.53;;;10.50;97.70;;;;;;10630462;27;20289;-78
2023/02/04 12:33:15;;;;;;;14.10;6.67;;;10.50;95.80;;;;;;10565535;27;20330;-79
2023/02/04 12:38:17;;;;;;;12.83;4.93;;;10.50;97.00;;;;;;10566810;28;20569;-78
2023/02/04 12:43:19;;;;;;;12.30;5.40;;;10.60;97.80;;;;;;10627985;27;20190;-78
2023/02/04 12:48:22;;;;;;;8.07;3.20;;;10.50;96.90;;;;;;10618072;27;20223;-79
2023/02/04 12:53:24;;;;;;;11.30;4.53;;;10.50;97.80;;;;;;10629932;27;20709;-79
2023/02/04 12:58:26;;;;;;;11.97;5.03;;;10.50;96.80;;;;;;10595512;27;20605;-78
2023/02/04 13:03:30;;;;;;;11.20;6.43;;;10.40;98.10;;;;;;10572420;27;20429;-78
2023/02/04 13:08:32;;;;;;;8.17;4.43;;;10.30;97.60;;;;;;10588315;27;20306;-79
2023/02/04 13:13:34;;;;;;;12.30;6.47;;;10.30;97.80;;;;;;10625426;27;20258;-79
2023/02/04 13:18:38;;;;;;;10.00;4.00;;;10.40;97.10;;;;;;10628774;27;20500;-79
2023/02/04 13:23:40;;;;;;;11.30;4.37;;;10.40;97.20;;;;;;10592779;27;20237;-79
2023/02/04 13:28:42;;;;;;;11.05;4.65;;;10.30;97.40;;;;;;10590162;27;20211;-79
2023/02/04 13:33:46;;;;;;;14.53;5.50;;;10.50;97.40;;;;;;10563895;27;20235;-79
2023/02/04 13:38:48;;;;;;;9.00;5.20;;;10.40;96.50;;;;;;10592237;27;20211;-78
2023/02/04 13:43:50;;;;;;;12.17;4.50;;;10.30;96.80;;;;;;10621291;27;20195;-78
2023/02/04 13:48:53;;;;;;;10.63;4.90;;;10.40;97.20;;;;;;10650099;22;20506;-80
2023/02/04 13:53:55;;;;;;;13.47;5.37;;;10.30;97.60;;;;;;10595214;27;20275;-80
2023/02/04 13:58:58;;;;;;;11.53;4.40;;;10.10;97.80;;;;;;10603356;27;20233;-81
2023/02/04 14:04:01;;;;;;;13.67;5.00;;;9.90;97.40;;;;;;10604318;27;20290;-80
2023/02/04 14:09:04;;;;;;;14.50;6.97;;;9.70;97.40;;;;;;10603211;27;20277;-80
2023/02/04 14:14:06;;;;;;;10.90;4.80;;;9.70;98.60;;;;;;10589574;28;20658;-81
2023/02/04 14:19:10;;;;;;;12.83;4.60;;;9.60;98.70;;;;;;10591667;28;20231;-81
2023/02/04 14:24:12;;;;;;;13.05;7.15;;;9.50;98.10;;;;;;10599509;28;20195;-81
2023/02/04 14:29:14;;;;;;;16.45;6.97;;;9.60;98.50;;;;;;10610170;27;20223;-80
2023/02/04 14:34:17;;;;;;;9.37;4.53;;;9.70;98.30;;;;;;10605378;28;20227;-80
2023/02/04 14:39:19;;;;;;;12.07;4.40;;;9.60;98.60;;;;;;10627663;27;20260;-81
2023/02/04 14:44:21;;;;;;;8.33;4.80;;;9.40;98.80;;;;;;10560811;27;20666;-80
2023/02/04 14:49:25;;;;;;;9.97;4.67;;;9.30;98.80;;;;;;10623848;27;20301;-80
2023/02/04 14:54:28;;;;;;;10.37;4.80;;;9.40;98.60;;;;;;10561348;27;20568;-80
2023/02/04 14:59:30;;;;;;;11.73;5.37;;;9.30;99.80;;;;;;10613875;27;20198;-80
2023/02/04 15:04:34;;;;;;;9.50;4.93;;;9.40;99.90;;;;;;10581888;27;20448;-80
2023/02/04 15:09:36;;;;;;;10.07;4.93;;;9.40;99.60;;;;;;10603361;27;20659;-80
2023/02/04 15:14:38;;;;;;;7.80;4.13;;;9.30;99.10;;;;;;10614491;27;20239;-80
2023/02/04 15:19:41;;;;;;;11.20;3.43;;;9.30;98.80;;;;;;10617328;27;20199;-79
2023/02/04 15:24:43;;;;;;;7.40;4.33;;;9.20;98.00;;;;;;10607348;27;20282;-79
2023/02/04 15:29:45;;;;;;;7.30;3.90;;;9.10;97.70;;;;;;10584906;28;20302;-79
2023/02/04 15:34:49;;;;;;;10.67;4.77;;;9.10;99.20;;;;;;10584229;27;20279;-79
2023/02/04 15:39:51;;;;;;;9.10;4.80;;;9.00;99.00;;;;;;10614205;27;20199;-82
2023/02/04 15:44:53;;;;;;;7.13;4.00;;;8.90;99.30;;;;;;10592012;27;20218;-80
2023/02/04 15:49:56;;;;;;;6.93;3.77;;;8.90;99.40;;;;;;10570532;28;20676;-81
2023/02/04 15:54:58;;;;;;;11.63;4.60;;;8.90;99.40;;;;;;10579993;27;20646;-82
2023/02/04 16:00:01;;;;;;;7.30;3.63;;;8.90;98.70;;;;;;10572160;28;20204;-81
2023/02/04 16:05:05;;;;;;;8.30;4.37;;;8.90;99.50;;;;;;10586179;27;20226;-80
2023/02/04 16:10:07;;;;;;;9.50;4.30;;;8.90;99.50;;;;;;10593692;27;20665;-78
2023/02/04 16:15:10;;;;;;;12.70;3.63;;;8.90;99.10;;;;;;10575508;27;20250;-79
2023/02/04 16:20:13;;;;;;;9.13;4.27;;;8.90;98.80;;;;;;10603562;27;20207;-79
2023/02/04 16:25:16;;;;;;;10.77;4.40;;;8.90;98.00;;;;;;10582251;27;20379;-79
2023/02/04 16:30:18;;;;;;;9.60;4.60;;;8.90;98.50;;;;;;10590831;27;20199;-80
2023/02/04 16:35:21;;;;;;;10.73;4.03;;;8.90;98.80;;;;;;10616852;27;20215;-80
2023/02/04 16:40:24;;;;;;;11.63;4.47;;;8.90;98.70;;;;;;10607985;27;20195;-80
2023/02/04 16:45:26;;;;;;;10.30;4.90;;;9.00;98.10;;;;;;10589408;27;20612;-79
2023/02/04 16:50:29;;;;;;;9.17;4.90;;;9.10;98.40;;;;;;10587146;27;20211;-80
2023/02/04 16:55:32;;;;;;;10.27;4.70;;;9.00;98.60;;;;;;10603676;27;20619;-80
2023/02/04 17:00:34;;;;;;;11.03;5.30;;;8.90;97.70;;;;;;10589797;27;20203;-80
2023/02/04 17:05:38;;;;;;;10.50;5.63;;;8.70;98.60;;;;;;10601054;27;20782;-80
2023/02/04 17:16:00;;;;;;;12.90;5.30;;;8.90;98.90;;;;;;10575533;27;20250;-79
2023/02/04 17:21:03;;;;;;;32.63;13.93;;;9.00;99.20;;;;;;10589917;27;20190;-79
2023/02/04 17:26:06;;;;;;;17.83;8.70;;;8.80;98.90;;;;;;10602967;27;20288;-80
2023/02/04 17:31:08;;;;;;;21.37;11.27;;;8.60;99.10;;;;;;10597899;27;20270;-80
2023/02/04 17:36:12;;;;;;;23.73;11.30;;;8.50;99.00;;;;;;10586251;27;20214;-80
2023/02/04 17:41:14;;;;;;;17.10;8.10;;;8.30;99.20;;;;;;10598491;27;20199;-80
2023/02/04 17:46:16;;;;;;;13.90;8.27;;;8.20;99.20;;;;;;10569629;27;20813;-79
2023/02/04 17:51:20;;;;;;;12.83;7.50;;;8.10;99.00;;;;;;10603187;27;20574;-80
2023/02/04 17:56:22;;;;;;;7.97;6.63;;;8.00;99.10;;;;;;10602643;27;20228;-79
2023/02/04 18:01:24;;;;;;;11.60;6.93;;;7.90;99.30;;;;;;10599756;27;20575;-80
2023/02/04 18:06:28;;;;;;;12.57;7.30;;;7.80;99.40;;;;;;10601998;27;20210;-80
2023/02/04 18:11:35;;;;;;;10.23;5.93;;;7.60;99.60;;;;;;10597306;27;20228;-79
2023/02/04 18:16:40;;;;;;;9.93;5.97;;;7.50;99.50;;;;;;10607049;27;20253;-80
2023/02/04 18:21:44;;;;;;;8.60;5.20;;;7.40;99.60;;;;;;10589999;28;20196;-79
2023/02/04 18:26:48;;;;;;;8.87;6.10;;;7.30;99.50;;;;;;10596144;27;20212;-78
2023/02/04 18:31:53;;;;;;;11.40;8.17;;;7.20;99.80;;;;;;10608503;28;20231;-80
2023/02/04 18:36:56;;;;;;;13.23;6.50;;;7.10;99.80;;;;;;10608359;27;20219;-80
2023/02/04 18:41:58;;;;;;;10.77;6.13;;;7.20;99.70;;;;;;10612060;27;20519;-79
2023/02/04 18:47:04;;;;;;;10.88;8.18;;;7.10;99.40;;;;;;10591997;27;20662;-79
2023/02/04 18:52:15;;;;;;;7.63;5.50;;;7.10;99.40;;;;;;10607390;27;20222;-79
2023/02/04 18:57:29;;;;;;;9.48;5.40;;;6.90;99.20;;;;;;10628469;27;20393;-79
2023/02/04 19:02:38;;;;;;;8.70;5.60;;;6.90;99.10;;;;;;10612449;27;20225;-79
2023/02/04 19:07:41;;;;;;;7.30;5.43;;;6.80;99.40;;;;;;10595454;27;20215;-79
2023/02/04 19:12:43;;;;;;;6.43;5.30;;;6.50;99.40;;;;;;10614269;27;20211;-79
2023/02/04 19:17:45;;;;;;;12.50;8.17;;;6.30;99.80;;;;;;10622241;27;20632;-80
2023/02/04 19:22:52;;;;;;;17.03;7.27;;;6.20;99.80;;;;;;10614991;27;20197;-79
2023/02/04 19:27:56;;;;;;;10.37;8.50;;;6.10;99.90;;;;;;10570764;27;20218;-78
2023/02/04 19:33:01;;;;;;;15.63;10.70;;;6.00;99.90;;;;;;10587411;27;20221;-78
2023/02/04 19:38:26;;;;;;;11.73;6.83;;;6.00;99.90;;;;;;10597041;27;20255;-79
2023/02/04 19:43:35;;;;;;;9.33;6.63;;;6.00;99.90;;;;;;10612469;27;20269;-79
2023/02/04 19:48:38;;;;;;;9.90;8.13;;;5.90;99.90;;;;;;10604440;27;20257;-81
2023/02/04 19:53:42;;;;;;;9.57;6.72;;;5.90;99.90;;;;;;10584520;27;20217;-80
2023/02/04 19:58:44;;;;;;;13.32;7.43;;;6.10;99.90;;;;;;10601307;27;20219;-81
2023/02/04 20:03:47;;;;;;;11.30;6.87;;;6.30;99.90;;;;;;10590535;27;20199;-81
2023/02/04 20:08:55;;;;;;;11.70;7.00;;;6.30;99.90;;;;;;10616602;27;20219;-79
2023/02/04 20:14:15;;;;;;;15.17;8.70;;;6.30;99.90;;;;;;10571399;27;20305;-80
2023/02/04 20:19:19;;;;;;;76.63;29.70;;;6.20;99.90;;;;;;10563734;28;20305;-80
2023/02/04 20:24:23;;;;;;;17.13;8.77;;;6.10;99.90;;;;;;10597488;27;20288;-81
2023/02/04 20:29:25;;;;;;;78.47;27.77;;;6.10;99.90;;;;;;10582213;27;20295;-80
2023/02/04 20:34:27;;;;;;;17.87;10.03;;;6.00;99.90;;;;;;10620048;27;20267;-79
2023/02/04 20:39:37;;;;;;;9.80;7.15;;;6.00;99.90;;;;;;10605054;27;20210;-81
2023/02/04 20:44:41;;;;;;;8.88;7.65;;;6.10;99.90;;;;;;10588877;28;20191;-80
2023/02/04 20:49:51;;;;;;;13.07;8.63;;;6.20;99.90;;;;;;10587658;27;20198;-81
2023/02/04 20:54:56;;;;;;;10.70;8.50;;;6.10;99.90;;;;;;10598683;27;20399;-81
2023/02/04 20:59:58;;;;;;;12.67;8.10;;;6.00;99.90;;;;;;10582110;28;20230;-80
2023/02/04 21:05:00;;;;;;;13.93;7.83;;;5.80;99.90;;;;;;10612479;27;20296;-81
2023/02/04 21:10:04;;;;;;;18.00;8.23;;;5.70;99.90;;;;;;10577892;27;20206;-80
2023/02/04 21:15:07;;;;;;;10.43;6.73;;;5.60;99.90;;;;;;10615703;27;20242;-80
2023/02/04 21:20:10;;;;;;;10.90;8.50;;;5.50;99.90;;;;;;10601008;27;20222;-80
2023/02/04 21:25:14;;;;;;;14.93;12.13;;;5.30;99.90;;;;;;10594967;27;20276;-81
2023/02/04 21:30:16;;;;;;;53.57;32.47;;;5.40;99.90;;;;;;10623155;27;20195;-82
2023/02/04 21:35:23;;;;;;;14.23;8.20;;;5.40;99.90;;;;;;10608045;27;20553;-82
2023/02/04 21:40:26;;;;;;;12.07;8.80;;;5.40;99.90;;;;;;10625994;27;20581;-80
2023/02/04 21:45:29;;;;;;;8.40;6.40;;;5.20;99.90;;;;;;10607707;27;20263;-82
2023/02/04 21:50:31;;;;;;;9.83;7.20;;;5.30;99.90;;;;;;10593200;27;20443;-81
2023/02/04 21:55:35;;;;;;;9.70;5.70;;;5.30;99.90;;;;;;10582711;27;20225;-78
2023/02/04 22:00:37;;;;;;;6.72;5.95;;;5.20;99.90;;;;;;10605865;27;20199;-80
2023/02/04 22:05:39;;;;;;;6.50;5.43;;;5.20;99.90;;;;;;10573122;27;20246;-81
2023/02/04 22:10:43;;;;;;;10.80;5.00;;;5.10;99.90;;;;;;10573582;27;20195;-80
2023/02/04 22:15:46;;;;;;;8.10;5.33;;;5.20;99.90;;;;;;10591148;27;20271;-82
2023/02/04 22:20:48;;;;;;;7.43;5.23;;;5.20;99.90;;;;;;10606673;27;20631;-81
2023/02/04 22:25:52;;;;;;;7.43;5.30;;;5.10;99.90;;;;;;10590670;28;20218;-81
2023/02/04 22:30:54;;;;;;;10.60;6.00;;;5.20;99.90;;;;;;10602209;27;20662;-81
2023/02/04 22:35:56;;;;;;;6.65;5.75;;;5.30;99.90;;;;;;10585569;27;20770;-82
2023/02/04 22:40:59;;;;;;;6.47;5.10;;;5.50;99.90;;;;;;10587243;28;20202;-82
2023/02/04 22:46:01;;;;;;;6.30;5.23;;;5.60;99.90;;;;;;10617983;28;20664;-81
2023/02/04 22:51:03;;;;;;;6.17;5.13;;;5.60;99.90;;;;;;10563757;28;20286;-81
2023/02/04 22:56:07;;;;;;;6.53;5.13;;;5.60;99.90;;;;;;10603953;28;20231;-82
2023/02/04 23:01:09;;;;;;;10.50;3.97;;;5.70;99.90;;;;;;10611792;27;20206;-81
2023/02/04 23:06:11;;;;;;;7.77;5.27;;;5.80;99.90;;;;;;10607841;28;20250;-81
2023/02/04 23:11:17;;;;;;;8.20;5.37;;;5.90;99.90;;;;;;10610291;27;20201;-80
2023/02/04 23:16:19;;;;;;;11.20;7.27;;;6.00;99.90;;;;;;10598781;27;20291;-81
2023/02/04 23:21:21;;;;;;;9.00;5.05;;;6.10;99.90;;;;;;10591496;28;20237;-82
2023/02/04 23:26:25;;;;;;;7.23;5.40;;;6.20;99.90;;;;;;10587979;27;20212;-82
2023/02/04 23:31:27;;;;;;;14.30;8.70;;;6.30;99.90;;;;;;10609709;27;20221;-81
2023/02/04 23:36:29;;;;;;;16.70;9.93;;;6.30;99.90;;;;;;10584337;27;20282;-80
2023/02/04 23:41:33;;;;;;;12.30;7.57;;;6.30;99.90;;;;;;10595495;27;20203;-77
2023/02/04 23:46:35;;;;;;;8.93;6.80;;;6.40;99.90;;;;;;10579394;27;20232;-79
2023/02/04 23:51:37;;;;;;;6.70;5.88;;;6.40;99.90;;;;;;10621304;27;20632;-78
2023/02/04 23:56:40;;;;;;;6.93;5.55;;;6.60;99.90;;;;;;10614518;27;20565;-77
